Time;durP1;ratioP1;P1;durP2;ratioP2;P2;SDS_P1;SDS_P2;PMS_P1;PMS_P2;Temp;Humidity;BMP_temperature;BMP_pressure;BME280_temperature;BME280_humidity;BME280_pressure;Samples;Min_cycle;Max_cycle;Signal;HPM_P1;HPM_P2
2023/09/05 08:35:53;;;;;;;;;10.00;8.00;;;;;25.26;46.33;101071.25;4958761;28;45232;-47
2023/09/05 08:38:18;;;;;;;;;9.25;8.00;;;;;25.26;46.56;101073.03;4959799;28;45391;-48
2023/09/05 08:40:46;;;;;;;;;10.67;8.33;;;;;25.28;46.41;101081.75;4958697;28;60245;-42
2023/09/05 08:43:12;;;;;;;;;11.50;7.00;;;;;25.29;46.31;101078.13;4958595;28;62181;-34
2023/09/05 08:45:39;;;;;;;;;9.00;7.00;;;;;25.28;46.44;101082.63;4959183;28;45966;-36
2023/09/05 08:48:05;;;;;;;;;8.00;8.00;;;;;25.30;46.23;101080.66;4959463;28;45424;-34
2023/09/05 08:50:32;;;;;;;;;7.25;7.25;;;;;25.30;46.28;101080.66;4959566;28;45845;-37
2023/09/05 08:53:01;;;;;;;;;6.00;6.00;;;;;25.33;46.53;101074.31;4959045;28;46216;-34
2023/09/05 08:55:27;;;;;;;;;8.00;7.00;;;;;25.33;46.37;101084.94;4959046;28;45660;-36
2023/09/05 08:57:54;;;;;;;;;7.50;7.00;;;;;25.35;46.30;101088.31;4941582;28;45525;-38
2023/09/05 09:00:21;;;;;;;;;8.50;7.00;;;;;25.35;46.48;101092.75;4959534;28;45333;-38
2023/09/05 09:02:47;;;;;;;;;7.50;6.75;;;;;25.35;46.32;101090.13;4959154;28;47142;-34
2023/09/05 09:05:12;;;;;;;;;9.75;8.25;;;;;25.38;46.31;101089.91;4958875;28;45486;-39
2023/09/05 09:07:37;;;;;;;;;7.25;7.00;;;;;25.37;46.21;101090.84;4941565;28;45393;-36
2023/09/05 09:10:20;;;;;;;;;7.00;7.00;;;;;25.38;46.28;101101.34;4959074;28;45326;-35
2023/09/05 09:12:48;;;;;;;;;9.75;7.00;;;;;25.39;46.32;101087.13;4958639;28;46535;-34
2023/09/05 09:15:13;;;;;;;;;7.00;6.00;;;;;25.40;46.71;101090.66;4958726;28;45728;-37
2023/09/05 09:17:47;;;;;;;;;8.75;8.75;;;;;25.40;46.13;101091.50;4958697;28;45224;-40
2023/09/05 09:20:13;;;;;;;;;7.00;7.00;;;;;25.41;46.12;101089.72;4959182;28;45426;-43
2023/09/05 09:22:40;;;;;;;;;7.50;7.50;;;;;25.41;46.56;101087.06;4940994;28;47109;-40
2023/09/05 09:25:14;;;;;;;;;7.75;7.00;;;;;25.43;46.67;101090.44;4958643;28;45375;-38
2023/09/05 09:27:42;;;;;;;;;7.25;6.25;;;;;25.42;46.83;101088.72;4958722;28;45307;-35
2023/09/05 09:30:09;;;;;;;;;7.00;7.00;;;;;25.43;46.58;101095.75;4958913;28;45331;-42
2023/09/05 09:32:37;;;;;;;;;8.75;7.00;;;;;25.45;46.71;101093.81;4958509;28;45393;-43
2023/09/05 09:35:06;;;;;;;;;7.75;7.50;;;;;25.44;46.34;101092.13;4958426;28;45767;-42
2023/09/05 09:37:33;;;;;;;;;9.00;7.75;;;;;25.45;46.63;101093.81;4958456;28;45351;-44
2023/09/05 09:40:00;;;;;;;;;10.00;7.00;;;;;25.46;46.85;101087.56;4941221;28;45611;-36
2023/09/05 09:42:26;;;;;;;;;8.50;8.00;;;;;25.46;46.75;101090.22;4958260;28;46609;-36
2023/09/05 09:44:52;;;;;;;;;10.00;8.00;;;;;25.48;46.91;101090.97;4958577;28;45686;-37
2023/09/05 09:47:18;;;;;;;;;9.25;9.25;;;;;25.48;46.43;101090.97;4957431;28;45306;-38
2023/09/05 09:49:47;;;;;;;;;8.00;4.75;;;;;25.48;46.44;101083.00;4958605;28;45870;-34
2023/09/05 09:52:16;;;;;;;;;10.50;8.00;;;;;25.50;46.67;101081.09;4958200;28;45382;-34
2023/09/05 09:54:44;;;;;;;;;8.25;8.25;;;;;25.51;46.45;101084.56;4958103;28;45349;-48
2023/09/05 09:57:14;;;;;;;;;9.00;7.00;;;;;25.51;47.08;101077.47;4958182;28;45399;-36
2023/09/05 09:59:50;;;;;;;;;6.00;6.00;;;;;25.52;46.53;101075.66;4958376;28;45525;-33
2023/09/05 10:02:16;;;;;;;;;7.50;7.50;;;;;25.52;47.12;101076.50;4957920;28;46369;-40
2023/09/05 10:04:43;;;;;;;;;10.25;9.00;;;;;25.53;46.92;101070.22;4958053;28;45236;-37
2023/09/05 10:07:14;;;;;;;;;9.50;7.25;;;;;25.53;46.92;101067.56;4958169;28;45255;-40
2023/09/05 10:09:43;;;;;;;;;8.00;6.75;;;;;25.54;46.86;101071.91;4958082;28;45321;-38
2023/09/05 10:12:08;;;;;;;;;7.50;7.00;;;;;25.55;47.04;101073.63;4957813;28;45347;-35
2023/09/05 10:14:36;;;;;;;;;10.25;8.50;;;;;25.55;47.09;101064.81;4957828;28;45383;-42
2023/09/05 10:17:02;;;;;;;;;9.00;8.00;;;;;25.56;47.09;101064.69;4957817;28;45530;-45
2023/09/05 10:19:29;;;;;;;;;9.75;9.00;;;;;25.57;46.92;101066.41;4958084;28;45373;-43
2023/09/05 10:21:58;;;;;;;;;7.00;7.00;;;;;25.58;47.15;101061.91;4957806;28;47305;-42
2023/09/05 10:24:29;;;;;;;;;8.00;8.00;;;;;25.59;47.34;101063.63;4958128;28;45700;-40
2023/09/05 10:26:55;;;;;;;;;9.75;8.50;;;;;25.58;47.46;101062.78;4958140;28;45391;-44
2023/09/05 10:29:46;;;;;;;;;8.00;8.00;;;;;25.60;47.13;101068.84;4957853;28;45452;-34
2023/09/05 10:32:18;;;;;;;;;8.00;8.00;;;;;25.60;47.18;101071.50;4940209;28;46580;-36
2023/09/05 10:34:55;;;;;;;;;7.25;7.00;;;;;25.61;47.70;101064.34;4957502;28;45357;-35
2023/09/05 10:37:22;;;;;;;;;7.25;6.75;;;;;25.61;47.28;101056.41;4956369;28;45362;-36
2023/09/05 10:39:50;;;;;;;;;8.00;7.25;;;;;25.62;47.02;101060.75;4957662;28;45672;-37
2023/09/05 10:42:16;;;;;;;;;8.00;7.75;;;;;25.63;47.44;101052.66;4939856;28;48469;-35
2023/09/05 10:44:50;;;;;;;;;7.50;7.50;;;;;25.62;47.32;101051.00;4957344;28;45361;-39
2023/09/05 10:47:28;;;;;;;;;12.75;10.25;;;;;25.63;47.27;101044.69;4957577;28;45421;-37
2023/09/05 10:49:58;;;;;;;;;7.00;7.00;;;;;25.65;47.55;101046.41;4957873;28;45437;-36
2023/09/05 10:52:29;;;;;;;;;10.25;8.25;;;;;25.63;47.05;101044.69;4957368;28;47051;-38
2023/09/05 10:55:18;;;;;;;;;9.00;9.00;;;;;25.65;47.49;101044.59;4957650;28;45423;-41
2023/09/05 10:57:47;;;;;;;;;7.75;7.75;;;;;25.66;47.21;101045.44;4956307;28;45465;-36
2023/09/05 11:00:16;;;;;;;;;10.00;9.00;;;;;25.66;47.22;101048.97;4940025;28;45425;-42
2023/09/05 11:02:43;;;;;;;;;9.25;8.00;;;;;25.67;47.37;101047.13;4957037;28;47223;-36
2023/09/05 11:05:19;;;;;;;;;11.25;8.00;;;;;25.68;47.28;101051.47;4957199;28;45447;-34
2023/09/05 11:07:50;;;;;;;;;9.75;8.00;;;;;25.68;46.72;101046.19;4957327;28;45461;-34
2023/09/05 11:10:39;;;;;;;;;9.50;8.00;;;;;25.69;47.08;101042.56;4957423;28;45394;-40
2023/09/05 11:13:08;;;;;;;;;9.25;8.00;;;;;25.69;47.40;101048.69;4957101;28;45285;-37
2023/09/05 11:15:36;;;;;;;;;7.50;7.50;;;;;25.69;47.18;101053.19;4957070;28;45689;-42
2023/09/05 11:18:06;;;;;;;;;10.75;9.50;;;;;25.69;47.01;101059.31;4939758;28;45277;-41
2023/09/05 11:20:39;;;;;;;;;9.75;9.25;;;;;25.70;47.15;101054.88;4957158;28;45342;-38
2023/09/05 11:23:17;;;;;;;;;11.00;8.25;;;;;25.71;46.95;101051.25;4956699;28;46247;-35
2023/09/05 11:25:43;;;;;;;;;5.00;5.00;;;;;25.71;47.27;101048.59;4956817;28;45725;-37
2023/09/05 11:28:09;;;;;;;;;9.00;8.00;;;;;25.72;46.83;101060.94;4957055;28;45247;-35
2023/09/05 11:30:42;;;;;;;;;8.50;8.00;;;;;25.72;46.55;101048.47;4957135;28;45326;-41
2023/09/05 11:33:15;;;;;;;;;7.75;7.00;;;;;25.73;46.75;101054.66;4956919;28;46344;-35
2023/09/05 11:35:44;;;;;;;;;8.25;7.75;;;;;25.73;46.60;101054.66;4957030;28;45816;-37
2023/09/05 11:38:11;;;;;;;;;8.75;8.00;;;;;25.73;46.73;101044.03;4956879;28;45268;-35
2023/09/05 11:40:38;;;;;;;;;8.25;6.00;;;;;25.73;46.67;101044.03;4957077;28;45327;-42
2023/09/05 11:43:09;;;;;;;;;11.00;9.25;;;;;25.74;46.88;101037.78;4955378;28;46334;-42
2023/09/05 11:45:37;;;;;;;;;10.50;7.25;;;;;25.73;46.55;101042.22;4956641;28;45727;-38
2023/09/05 11:48:04;;;;;;;;;10.25;8.75;;;;;25.75;46.57;101036.78;4956759;28;45445;-41
2023/09/05 11:50:31;;;;;;;;;9.25;8.25;;;;;25.75;46.28;101042.09;4956980;28;45430;-40
2023/09/05 11:52:58;;;;;;;;;8.25;8.25;;;;;25.75;46.42;101042.09;4956695;28;46127;-40
2023/09/05 11:55:25;;;;;;;;;6.75;6.75;;;;;25.76;46.04;101043.78;4956421;28;45299;-46
2023/09/05 11:57:55;;;;;;;;;7.00;7.00;;;;;25.77;46.16;101045.47;4956730;28;45685;-42
2023/09/05 12:00:23;;;;;;;;;7.25;7.00;;;;;25.78;45.82;101039.22;4939320;28;45283;-44
2023/09/05 12:02:49;;;;;;;;;9.00;7.50;;;;;25.78;45.63;101039.22;4956398;28;45440;-37
2023/09/05 12:05:17;;;;;;;;;6.00;6.00;;;;;25.79;45.83;101035.59;4955077;28;45651;-35
2023/09/05 12:07:49;;;;;;;;;9.00;8.00;;;;;25.79;45.54;101035.59;4956626;28;45442;-40
2023/09/05 12:10:14;;;;;;;;;7.25;7.25;;;;;25.79;45.76;101035.59;4957533;28;45423;-34
2023/09/05 12:12:54;;;;;;;;;9.75;7.75;;;;;25.80;45.30;101033.81;4959594;28;46260;-38
2023/09/05 12:15:37;;;;;;;;;8.50;7.00;;;;;25.80;45.53;101029.34;4942197;28;45741;-38
2023/09/05 12:18:05;;;;;;;;;8.25;8.00;;;;;25.80;45.47;101029.34;4959316;28;55103;-35
2023/09/05 12:20:32;;;;;;;;;8.00;6.25;;;;;25.81;45.39;101027.50;4960283;28;45232;-35
2023/09/05 12:22:57;;;;;;;;;8.75;7.00;;;;;25.82;45.27;101027.41;4959351;28;46252;-33
2023/09/05 12:25:24;;;;;;;;;7.00;7.00;;;;;25.81;45.36;101031.03;4959464;28;45319;-39
2023/09/05 12:27:51;;;;;;;;;8.00;7.25;;;;;25.82;45.42;101029.22;4959591;28;45375;-36
2023/09/05 12:30:29;;;;;;;;;8.50;7.25;;;;;25.82;45.36;101038.03;4942085;28;45339;-37
2023/09/05 12:32:58;;;;;;;;;11.00;7.75;;;;;25.82;45.17;101038.03;4959326;28;46627;-37
2023/09/05 12:35:25;;;;;;;;;9.50;6.75;;;;;25.82;45.00;101037.16;4958241;28;45978;-36
2023/09/05 12:37:52;;;;;;;;;10.75;7.25;;;;;25.83;45.10;101042.38;4959438;28;45464;-41
2023/09/05 12:40:17;;;;;;;;;10.00;8.00;;;;;25.83;44.88;101045.03;4959553;28;45437;-35
2023/09/05 12:42:44;;;;;;;;;10.75;8.50;;;;;25.83;44.49;101034.41;4941702;28;47585;-35
2023/09/05 12:45:11;;;;;;;;;9.25;8.00;;;;;25.84;44.10;101033.47;4959179;28;45359;-46
2023/09/05 12:47:37;;;;;;;;;9.25;7.50;;;;;25.85;44.08;101036.94;4941838;28;45272;-44
2023/09/05 12:50:02;;;;;;;;;8.25;6.25;;;;;25.86;43.97;101030.69;4959786;28;45220;-44
2023/09/05 12:52:29;;;;;;;;;5.50;5.50;;;;;25.87;43.76;101033.22;4959144;28;47548;-46
2023/09/05 12:54:55;;;;;;;;;7.25;7.25;;;;;25.88;43.88;101029.59;4959095;28;45453;-43
2023/09/05 12:57:21;;;;;;;;;7.00;7.00;;;;;25.88;43.38;101034.91;4941736;28;45335;-44
2023/09/05 12:59:47;;;;;;;;;6.50;6.50;;;;;25.88;43.45;101034.91;4941977;28;45421;-44
2023/09/05 13:02:12;;;;;;;;;6.00;5.75;;;;;25.88;42.88;101032.25;4958971;28;46108;-46
2023/09/05 13:04:38;;;;;;;;;6.25;6.25;;;;;25.90;43.13;101029.50;4958966;28;45335;-44
2023/09/05 13:07:03;;;;;;;;;8.75;8.00;;;;;25.89;43.17;101028.63;4959465;28;45812;-44
2023/09/05 13:09:28;;;;;;;;;6.25;6.00;;;;;25.90;43.17;101027.69;4957990;28;45651;-43
2023/09/05 13:11:54;;;;;;;;;5.50;5.00;;;;;25.90;42.68;101027.69;4957560;28;45385;-44
2023/09/05 13:14:19;;;;;;;;;5.25;5.25;;;;;25.90;42.68;101029.50;4957526;28;46211;-43
2023/09/05 13:16:44;;;;;;;;;7.75;5.75;;;;;25.92;42.61;101022.25;4959073;28;45338;-46
2023/09/05 13:19:11;;;;;;;;;5.00;4.25;;;;;25.91;42.52;101020.53;4959105;28;45394;-46
2023/09/05 13:21:37;;;;;;;;;6.00;6.00;;;;;25.91;42.31;101018.75;4958558;28;46428;-45
2023/09/05 13:24:03;;;;;;;;;5.25;5.25;;;;;25.91;42.57;101016.09;4958927;28;45185;-44
2023/09/05 13:26:29;;;;;;;;;6.50;5.25;;;;;25.92;42.56;101023.09;4958608;28;45448;-43
2023/09/05 13:28:54;;;;;;;;;7.00;5.00;;;;;25.93;42.34;101018.63;4958927;28;45548;-45
2023/09/05 13:31:19;;;;;;;;;6.00;5.25;;;;;25.93;42.27;101016.84;4958511;28;45336;-46
2023/09/05 13:33:45;;;;;;;;;6.00;6.00;;;;;25.93;42.51;101008.00;4957983;28;62427;-46
2023/09/05 13:36:10;;;;;;;;;5.75;5.75;;;;;25.93;42.44;101011.53;4958639;28;45200;-44
2023/09/05 13:38:35;;;;;;;;;6.50;5.00;;;;;25.95;42.40;101000.78;4959108;28;45718;-42
2023/09/05 13:41:01;;;;;;;;;5.75;4.75;;;;;25.95;42.36;101005.25;4958394;28;45493;-45
2023/09/05 13:43:26;;;;;;;;;6.50;6.00;;;;;25.96;42.79;101009.59;4958379;28;45357;-46
2023/09/05 13:45:51;;;;;;;;;8.00;7.25;;;;;25.96;42.50;101004.28;4958333;28;45425;-40
2023/09/05 13:48:16;;;;;;;;;6.00;6.00;;;;;25.96;42.35;101001.63;4958709;28;45409;-38
2023/09/05 13:50:42;;;;;;;;;6.00;6.00;;;;;25.97;42.07;101009.47;4957866;28;52202;-38
2023/09/05 13:53:08;;;;;;;;;7.50;5.00;;;;;25.98;42.42;101005.00;4958455;28;45268;-38
2023/09/05 13:55:33;;;;;;;;;6.25;6.00;;;;;25.98;41.82;101002.34;4957133;28;45460;-37
2023/09/05 13:57:59;;;;;;;;;3.25;3.25;;;;;25.98;42.12;100999.69;4958530;28;45565;-37
2023/09/05 14:00:25;;;;;;;;;5.50;4.75;;;;;26.00;41.91;100995.09;4957859;28;54262;-38
2023/09/05 14:02:50;;;;;;;;;6.75;6.00;;;;;25.99;41.77;100996.06;4940737;28;45424;-38
2023/09/05 14:05:16;;;;;;;;;5.00;5.00;;;;;26.01;42.08;101004.78;4958159;28;45801;-38
2023/09/05 14:07:41;;;;;;;;;5.00;5.00;;;;;26.00;41.64;100993.31;4958427;28;45526;-39
2023/09/05 14:10:12;;;;;;;;;5.75;5.75;;;;;26.01;41.49;100991.50;4940844;28;47237;-38
2023/09/05 14:12:38;;;;;;;;;6.75;5.75;;;;;26.02;41.44;100993.19;4958310;28;45347;-39
2023/09/05 14:15:09;;;;;;;;;5.75;5.75;;;;;26.02;41.62;100990.53;4958300;28;45376;-38
2023/09/05 14:17:37;;;;;;;;;5.75;5.75;;;;;26.03;41.55;100989.56;4940837;28;45347;-41
2023/09/05 14:20:03;;;;;;;;;6.00;5.00;;;;;26.02;41.94;100986.06;4957808;28;46368;-38
2023/09/05 14:22:28;;;;;;;;;7.25;5.75;;;;;26.04;41.67;100993.91;4939929;28;45396;-36
2023/09/05 14:24:54;;;;;;;;;6.25;6.00;;;;;26.03;41.42;100993.06;4956481;28;45316;-39
2023/09/05 14:27:19;;;;;;;;;5.00;5.00;;;;;26.04;41.48;100991.25;4956703;28;45361;-34
2023/09/05 14:29:45;;;;;;;;;7.50;5.50;;;;;26.04;41.62;100988.59;4938761;28;46144;-43
2023/09/05 14:32:10;;;;;;;;;4.25;4.25;;;;;26.04;41.45;100985.94;4956567;28;45450;-36
2023/09/05 14:34:36;;;;;;;;;7.00;6.00;;;;;26.04;41.29;100992.09;4938911;28;45244;-39
2023/09/05 14:37:01;;;;;;;;;5.00;5.00;;;;;26.04;41.39;100981.47;4956562;28;45229;-37
2023/09/05 14:39:27;;;;;;;;;4.50;4.50;;;;;26.04;41.24;100978.81;4938667;28;46038;-36
2023/09/05 14:41:52;;;;;;;;;3.00;3.00;;;;;26.05;41.58;100980.50;4956221;28;45347;-42
2023/09/05 14:44:19;;;;;;;;;6.00;6.00;;;;;26.05;41.03;100977.03;4938813;28;45343;-34
2023/09/05 14:46:45;;;;;;;;;6.75;6.75;;;;;26.06;41.24;100981.38;4956356;28;45473;-41
2023/09/05 14:49:11;;;;;;;;;5.00;5.00;;;;;26.06;41.38;100978.72;4955205;28;46112;-42
2023/09/05 14:51:38;;;;;;;;;9.75;4.00;;;;;26.06;41.08;100976.06;4956357;28;45445;-42
2023/09/05 14:54:04;;;;;;;;;4.75;4.00;;;;;26.05;41.09;100979.69;4956094;28;45450;-45
2023/09/05 14:56:30;;;;;;;;;5.00;5.00;;;;;26.04;40.83;100970.84;4938914;28;45430;-39
2023/09/05 14:58:55;;;;;;;;;4.75;4.75;;;;;26.05;40.88;100979.69;4955911;28;46059;-38
2023/09/05 15:01:20;;;;;;;;;6.00;6.00;;;;;26.05;41.30;100980.50;4955844;28;45260;-34
2023/09/05 15:03:46;;;;;;;;;5.75;5.00;;;;;26.05;41.28;100977.03;4956074;28;45297;-42
2023/09/05 15:06:11;;;;;;;;;6.25;5.00;;;;;26.04;40.99;100978.81;4956414;28;45284;-41
2023/09/05 15:08:36;;;;;;;;;5.25;4.00;;;;;26.04;41.19;100980.63;4956077;28;45324;-38
2023/09/05 15:11:02;;;;;;;;;4.00;4.00;;;;;26.05;41.05;100974.38;4955032;28;65694;-42
2023/09/05 15:13:27;;;;;;;;;8.75;5.00;;;;;26.05;41.17;100977.03;4955898;28;45340;-34
2023/09/05 15:15:52;;;;;;;;;5.75;5.50;;;;;26.05;40.60;100982.34;4956057;28;45330;-37
2023/09/05 15:18:18;;;;;;;;;4.75;4.75;;;;;26.05;41.19;100982.34;4955661;28;46110;-36
2023/09/05 15:20:43;;;;;;;;;6.25;4.75;;;;;26.05;40.73;100974.38;4954811;28;46295;-40
2023/09/05 15:23:09;;;;;;;;;8.67;4.67;;;;;26.05;40.87;100974.38;4915974;28;1192042;-34
2023/09/05 15:25:34;;;;;;;;;4.00;4.00;;;;;26.06;40.55;100965.44;4957338;28;45223;-35
2023/09/05 15:27:59;;;;;;;;;5.00;5.00;;;;;26.05;40.79;100963.75;4955615;28;45599;-33
2023/09/05 15:30:24;;;;;;;;;7.50;6.00;;;;;26.06;40.72;100960.13;4956929;28;45427;-36
2023/09/05 15:32:51;;;;;;;;;4.50;4.50;;;;;26.06;40.50;100962.78;4956332;28;62676;-37
2023/09/05 15:35:16;;;;;;;;;7.00;5.00;;;;;26.06;40.41;100965.44;4957114;28;45587;-36
2023/09/05 15:37:42;;;;;;;;;4.00;4.00;;;;;26.05;40.25;100964.56;4955879;28;46098;-34
2023/09/05 15:40:08;;;;;;;;;4.75;4.25;;;;;26.05;40.42;100963.75;4956828;28;45481;-35
2023/09/05 15:42:33;;;;;;;;;4.00;2.00;;;;;26.06;40.05;100960.13;4956965;28;45460;-36
2023/09/05 15:44:59;;;;;;;;;6.00;4.75;;;;;26.06;40.10;100962.78;4956211;28;45250;-38
2023/09/05 15:47:26;;;;;;;;;8.50;5.00;;;;;26.05;40.22;100959.25;4960103;28;45469;-34
2023/09/05 15:49:54;;;;;;;;;6.75;4.75;;;;;26.05;39.80;100966.41;4960061;28;45498;-35
2023/09/05 15:52:20;;;;;;;;;5.00;4.00;;;;;26.05;39.67;100967.22;4960189;28;45176;-33
2023/09/05 15:54:46;;;;;;;;;3.75;3.75;;;;;26.05;39.69;100969.06;4960914;28;45858;-35
2023/09/05 15:57:11;;;;;;;;;5.00;5.00;;;;;26.06;39.66;100966.28;4960313;28;45989;-34
2023/09/05 15:59:44;;;;;;;;;4.00;4.00;;;;;26.06;39.62;100970.75;4959928;28;45345;-34
2023/09/05 16:02:12;;;;;;;;;4.00;4.00;;;;;26.07;39.38;100975.09;4960307;28;45240;-41
2023/09/05 16:04:37;;;;;;;;;4.75;3.75;;;;;26.05;39.30;100969.06;4960092;28;45609;-37
2023/09/05 16:07:03;;;;;;;;;3.25;3.25;;;;;26.07;39.04;100977.75;4959903;28;46343;-37
2023/09/05 16:09:28;;;;;;;;;3.50;3.00;;;;;26.07;39.35;100967.13;4959880;28;45460;-35
2023/09/05 16:11:56;;;;;;;;;3.75;3.75;;;;;26.07;39.46;100972.44;4959807;28;45386;-35
2023/09/05 16:14:22;;;;;;;;;5.00;3.25;;;;;26.06;38.94;100973.41;4960147;28;45437;-37
2023/09/05 16:16:47;;;;;;;;;3.25;3.25;;;;;26.06;39.43;100973.41;4959755;28;46215;-33
2023/09/05 16:19:13;;;;;;;;;6.75;5.00;;;;;26.08;39.43;100971.44;4959985;28;45273;-34
2023/09/05 16:21:38;;;;;;;;;5.25;3.50;;;;;26.06;38.92;100968.94;4959811;28;45515;-35
2023/09/05 16:24:04;;;;;;;;;5.50;5.00;;;;;26.08;38.98;100974.09;4959700;28;46444;-37
2023/09/05 16:26:30;;;;;;;;;5.00;3.50;;;;;26.06;38.78;100970.75;4959551;28;46280;-41
2023/09/05 16:28:55;;;;;;;;;4.25;4.00;;;;;26.06;38.98;100970.75;4958383;28;45243;-35
2023/09/05 16:31:21;;;;;;;;;6.50;4.00;;;;;26.07;39.30;100967.13;4959523;28;45430;-43
2023/09/05 16:33:46;;;;;;;;;3.75;3.75;;;;;26.06;38.56;100970.75;4960095;28;45565;-36
2023/09/05 16:36:12;;;;;;;;;4.50;3.75;;;;;26.06;38.97;100970.75;4959162;28;46277;-41
2023/09/05 16:38:38;;;;;;;;;6.00;4.25;;;;;26.05;38.50;100969.06;4959429;28;45386;-34
2023/09/05 16:41:11;;;;;;;;;4.00;4.00;;;;;26.06;39.01;100970.75;4959705;28;45905;-38
2023/09/05 16:43:36;;;;;;;;;4.00;4.00;;;;;26.07;39.03;100975.09;4959459;28;45492;-41
2023/09/05 16:46:14;;;;;;;;;4.00;4.00;;;;;26.05;38.51;100969.06;4959490;28;46139;-35
2023/09/05 16:48:39;;;;;;;;;3.00;3.00;;;;;26.05;38.93;100971.72;4959358;28;45757;-39
2023/09/05 16:51:13;;;;;;;;;3.00;3.00;;;;;26.05;38.73;100969.06;4959240;28;45387;-40
2023/09/05 16:53:40;;;;;;;;;3.00;3.00;;;;;26.06;38.99;100976.06;4959481;28;45470;-39
2023/09/05 16:56:06;;;;;;;;;6.50;4.00;;;;;26.03;38.60;100971.81;4958549;28;45316;-36
2023/09/05 16:58:31;;;;;;;;;3.50;3.50;;;;;26.05;38.88;100974.38;4959126;28;45423;-35
2023/09/05 17:01:01;;;;;;;;;5.00;5.00;;;;;26.04;38.86;100972.66;4959065;28;45410;-37
2023/09/05 17:03:27;;;;;;;;;4.25;4.25;;;;;26.04;38.50;100967.38;4941951;28;45444;-39
2023/09/05 17:05:52;;;;;;;;;2.50;2.50;;;;;26.03;38.32;100966.50;4958517;28;57903;-39
2023/09/05 17:08:18;;;;;;;;;6.50;4.75;;;;;26.03;38.88;100970.97;4959278;28;45444;-38
2023/09/05 17:10:48;;;;;;;;;3.75;3.75;;;;;26.03;38.93;100976.28;4958999;28;45294;-38
2023/09/05 17:13:13;;;;;;;;;8.25;5.75;;;;;26.03;39.04;100977.13;4959177;28;45453;-45
2023/09/05 17:15:40;;;;;;;;;7.00;5.00;;;;;26.04;38.24;100972.66;4958842;28;46128;-34
2023/09/05 17:18:06;;;;;;;;;6.50;5.25;;;;;26.03;38.91;100965.66;4958777;28;45446;-33
2023/09/05 17:20:31;;;;;;;;;5.00;5.00;;;;;26.04;38.86;100977.97;4958902;28;45406;-40
2023/09/05 17:22:56;;;;;;;;;6.00;4.25;;;;;26.03;38.43;100981.59;4958483;28;46954;-34
2023/09/05 17:25:22;;;;;;;;;8.50;7.00;;;;;26.03;38.71;100982.44;4958624;28;46526;-35
2023/09/05 17:27:47;;;;;;;;;7.25;7.00;;;;;26.03;38.70;100981.59;4958497;28;56672;-35
2023/09/05 17:30:13;;;;;;;;;6.75;5.75;;;;;26.03;38.76;100981.59;4958683;28;45244;-38
2023/09/05 17:32:38;;;;;;;;;7.75;6.50;;;;;26.02;38.33;100986.06;4958850;28;45320;-40
2023/09/05 17:35:04;;;;;;;;;9.00;5.00;;;;;26.03;38.81;100986.91;4958441;28;45537;-40
2023/09/05 17:37:29;;;;;;;;;6.25;5.25;;;;;26.02;38.88;100983.38;4958487;28;45327;-36
2023/09/05 17:40:03;;;;;;;;;7.50;7.50;;;;;26.03;38.73;100993.06;4957411;28;45432;-37
2023/09/05 17:42:28;;;;;;;;;6.00;6.00;;;;;26.02;39.00;100990.53;4937078;28;45464;-36
2023/09/05 17:44:54;;;;;;;;;6.00;6.00;;;;;26.03;38.71;100992.22;4936300;28;45429;-35
2023/09/05 17:47:20;;;;;;;;;7.00;6.50;;;;;26.01;39.18;100991.50;4936671;28;45410;-36
2023/09/05 17:49:45;;;;;;;;;6.25;6.25;;;;;26.02;38.61;100995.84;4936724;28;45407;-38
2023/09/05 17:52:10;;;;;;;;;7.00;6.00;;;;;26.02;38.65;100995.84;4936924;28;45267;-34
2023/09/05 17:54:36;;;;;;;;;5.00;5.00;;;;;26.02;38.38;101001.97;4936153;28;55521;-37
2023/09/05 17:57:01;;;;;;;;;7.00;6.00;;;;;26.02;38.89;101001.16;4936577;28;45296;-37
2023/09/05 17:59:27;;;;;;;;;6.75;6.00;;;;;26.01;38.88;100996.81;4936485;28;45397;-37
2023/09/05 18:01:52;;;;;;;;;5.50;5.50;;;;;26.01;38.80;101000.31;4937137;28;45595;-38
2023/09/05 18:04:18;;;;;;;;;3.75;3.75;;;;;26.01;38.70;101005.63;4936382;28;45497;-35
2023/09/05 18:06:46;;;;;;;;;6.00;5.25;;;;;26.01;38.68;101008.28;4936471;28;45334;-39
2023/09/05 18:09:12;;;;;;;;;7.00;6.00;;;;;26.01;38.75;101013.59;4935554;28;45414;-37
2023/09/05 18:11:38;;;;;;;;;7.00;7.00;;;;;26.01;38.92;101015.38;4936724;28;45469;-36
2023/09/05 18:14:04;;;;;;;;;5.25;5.25;;;;;26.01;39.30;101016.25;4952130;28;47067;-37
2023/09/05 18:16:29;;;;;;;;;5.00;4.00;;;;;26.02;39.00;101030.38;4957535;28;45434;-38
2023/09/05 18:18:55;;;;;;;;;5.50;4.50;;;;;26.02;39.01;101022.41;4957860;28;45273;-40
2023/09/05 18:21:20;;;;;;;;;7.00;6.25;;;;;26.02;38.90;101033.03;4958258;28;45353;-36
2023/09/05 18:23:45;;;;;;;;;7.50;5.00;;;;;26.02;39.23;101033.03;4957613;28;46238;-37
2023/09/05 18:26:12;;;;;;;;;5.50;4.25;;;;;26.02;39.14;101030.38;4957754;28;45277;-34
2023/09/05 18:28:39;;;;;;;;;9.25;5.50;;;;;26.02;38.82;101027.72;4957599;28;45332;-39
2023/09/05 18:31:06;;;;;;;;;6.50;6.50;;;;;26.01;39.42;101029.53;4958091;28;45209;-40
2023/09/05 18:33:32;;;;;;;;;7.50;6.00;;;;;26.01;38.82;101031.31;4957537;28;45485;-36
2023/09/05 18:35:59;;;;;;;;;7.00;6.75;;;;;26.01;38.96;101036.63;4957693;28;45457;-41
2023/09/05 18:38:24;;;;;;;;;8.25;5.50;;;;;26.02;39.49;101047.13;4957994;28;45418;-38
2023/09/05 18:40:53;;;;;;;;;7.50;6.75;;;;;26.02;39.04;101052.44;4957737;28;45267;-36
2023/09/05 18:43:18;;;;;;;;;9.75;7.00;;;;;26.02;39.27;101049.78;4957200;28;46489;-36
2023/09/05 18:45:47;;;;;;;;;8.00;7.50;;;;;26.02;39.24;101054.28;4957525;28;45292;-41
2023/09/05 18:48:12;;;;;;;;;8.50;8.00;;;;;26.01;39.45;101061.41;4957570;28;45338;-42
2023/09/05 18:50:38;;;;;;;;;6.50;6.00;;;;;26.01;39.34;101052.56;4956903;28;55671;-40
2023/09/05 18:53:03;;;;;;;;;6.50;5.50;;;;;26.01;39.69;101057.88;4957358;28;45404;-37
2023/09/05 18:55:29;;;;;;;;;8.25;6.25;;;;;26.02;39.59;101064.91;4957294;28;45386;-40
2023/09/05 18:57:54;;;;;;;;;8.50;7.25;;;;;26.02;39.43;101062.25;4957677;28;45414;-35
2023/09/05 19:00:20;;;;;;;;;9.00;6.25;;;;;26.01;39.69;101053.44;4957389;28;45369;-37
2023/09/05 19:02:45;;;;;;;;;7.00;5.00;;;;;26.01;39.71;101064.06;4939785;28;46170;-42
2023/09/05 19:05:14;;;;;;;;;9.00;7.50;;;;;26.02;39.62;101059.59;4956974;28;48924;-39
2023/09/05 19:07:40;;;;;;;;;8.50;8.25;;;;;26.01;39.67;101073.81;4957321;28;45232;-43
2023/09/05 19:10:06;;;;;;;;;8.25;7.75;;;;;26.02;39.82;101078.16;4957393;28;45212;-36
2023/09/05 19:12:32;;;;;;;;;7.00;7.00;;;;;26.01;39.70;101076.47;4939556;28;45909;-42
2023/09/05 19:14:57;;;;;;;;;7.25;7.00;;;;;26.02;39.86;101079.00;4957585;28;45362;-42
2023/09/05 19:17:22;;;;;;;;;7.50;7.50;;;;;26.02;40.08;101080.81;4957495;28;45469;-39
2023/09/05 19:19:48;;;;;;;;;12.00;7.00;;;;;26.02;39.64;101084.31;4958664;28;45463;-38
2023/09/05 19:22:13;;;;;;;;;9.25;7.50;;;;;26.03;40.12;101093.16;4959009;28;45661;-33
2023/09/05 19:24:39;;;;;;;;;9.75;7.00;;;;;26.02;40.01;101086.13;4960356;28;45421;-39
2023/09/05 19:27:05;;;;;;;;;10.25;9.00;;;;;26.01;40.14;101087.97;4960531;28;45389;-37
2023/09/05 19:29:31;;;;;;;;;9.00;9.00;;;;;26.02;39.80;101089.63;4960599;28;45424;-40
2023/09/05 19:31:57;;;;;;;;;10.25;9.25;;;;;26.03;40.32;101093.16;4960413;28;45576;-41
2023/09/05 19:34:24;;;;;;;;;9.25;7.75;;;;;26.03;40.22;101098.47;4960144;28;45252;-36
2023/09/05 19:36:49;;;;;;;;;10.00;10.00;;;;;26.02;40.77;101104.72;4960441;28;45374;-37
2023/09/05 19:39:15;;;;;;;;;9.75;8.00;;;;;26.04;40.92;101110.78;4960498;28;45644;-38
2023/09/05 19:41:41;;;;;;;;;8.75;8.00;;;;;26.03;40.44;101107.25;4960004;28;45978;-37
2023/09/05 19:44:08;;;;;;;;;7.75;7.25;;;;;26.03;40.58;101104.59;4960083;28;45311;-38
2023/09/05 19:46:34;;;;;;;;;10.25;9.25;;;;;26.04;40.85;101105.47;4959286;28;46080;-39
2023/09/05 19:49:02;;;;;;;;;11.00;9.00;;;;;26.03;41.25;101098.47;4960634;28;45975;-35
2023/09/05 19:51:27;;;;;;;;;9.25;8.25;;;;;26.04;41.11;101105.47;4960149;28;46200;-38
2023/09/05 19:53:52;;;;;;;;;16.00;9.25;;;;;26.03;41.08;101106.44;4959356;28;62669;-42
2023/09/05 19:56:18;;;;;;;;;13.00;11.00;;;;;26.04;40.82;101108.13;4959947;28;45450;-35
2023/09/05 19:58:43;;;;;;;;;15.00;11.25;;;;;26.03;41.04;101107.25;4959652;28;49567;-40